Time;durP1;ratioP1;P1;durP2;ratioP2;P2;SDS_P1;SDS_P2;PMS_P1;PMS_P2;Temp;Humidity;BMP_temperature;BMP_pressure;BME280_temperature;BME280_humidity;BME280_pressure;Samples;Min_cycle;Max_cycle;Signal;HPM_P1;HPM_P2
2020/12/12 00:01:41;;;;;;;;;;;;;;;17.49;59.25;100038.09;5043179;28;1473;-59
2020/12/12 00:04:06;;;;;;;;;;;;;;;17.47;59.59;100033.91;5049239;28;1496;-55
2020/12/12 00:06:32;;;;;;;;;;;;;;;17.46;59.85;100043.72;5038053;28;2044;-56
2020/12/12 00:08:57;;;;;;;;;;;;;;;17.48;59.95;100040.91;5049786;28;1536;-59
2020/12/12 00:11:22;;;;;;;;;;;;;;;17.49;60.31;100043.44;5043201;28;1533;-59
2020/12/12 00:13:48;;;;;;;;;;;;;;;17.52;60.09;100068.19;5042906;28;1422;-55
2020/12/12 00:16:16;;;;;;;;;;;;;;;17.49;59.66;100042.59;5050422;28;1548;-58
2020/12/12 00:18:42;;;;;;;;;;;;;;;17.47;59.93;100056.09;5037901;28;1648;-55
2020/12/12 00:21:08;;;;;;;;;;;;;;;17.48;60.04;100062.28;5048652;28;1441;-55
2020/12/12 00:23:33;;;;;;;;;;;;;;;17.51;59.65;100064.69;5044532;28;1438;-55
2020/12/12 00:25:58;;;;;;;;;;;;;;;17.48;58.98;100059.63;5040978;28;1890;-59
2020/12/12 00:28:24;;;;;;;;;;;;;;;17.47;59.62;100056.09;5050113;28;1500;-55
2020/12/12 00:30:49;;;;;;;;;;;;;;;17.48;59.68;100059.63;5038511;28;1449;-55
2020/12/12 00:33:14;;;;;;;;;;;;;;;17.48;59.52;100062.28;5045283;28;1572;-55
2020/12/12 00:35:40;;;;;;;;;;;;;;;17.47;58.84;100060.63;5044093;28;1421;-59
2020/12/12 00:38:05;;;;;;;;;;;;;;;17.43;59.05;100049.38;5048896;28;1465;-56
2020/12/12 00:40:30;;;;;;;;;;;;;;;17.44;58.99;100059.06;5037067;28;1477;-55
2020/12/12 00:42:56;;;;;;;;;;;;;;;17.45;59.08;100065.25;5050199;28;1481;-56
2020/12/12 00:45:21;;;;;;;;;;;;;;;17.38;58.96;100046.25;5046420;28;1894;-55
2020/12/12 00:47:47;;;;;;;;;;;;;;;17.42;59.90;100053.00;5046259;28;1509;-58
2020/12/12 00:50:12;;;;;;;;;;;;;;;17.38;59.70;100035.56;5039018;28;1485;-56
2020/12/12 00:52:37;;;;;;;;;;;;;;;17.39;58.58;100033.72;5048636;28;1462;-58
2020/12/12 00:55:03;;;;;;;;;;;;;;;17.38;58.81;100040.09;5048585;28;1465;-59
2020/12/12 00:57:29;;;;;;;;;;;;;;;17.38;59.09;100040.91;5043273;28;1473;-55
2020/12/12 00:59:54;;;;;;;;;;;;;;;17.37;59.40;100033.91;5041096;28;1572;-58
2020/12/12 01:02:20;;;;;;;;;;;;;;;17.38;58.77;100040.09;5038668;28;1485;-56
2020/12/12 01:04:45;;;;;;;;;;;;;;;17.32;59.21;100035.31;5034955;28;1923;-58
2020/12/12 01:07:10;;;;;;;;;;;;;;;17.17;60.92;100025.06;5041378;28;1461;-58
2020/12/12 01:09:36;;;;;;;;;;;;;;;17.09;60.90;100019.59;5043775;28;1528;-56
2020/12/12 01:12:01;;;;;;;;;;;;;;;17.04;62.13;100025.31;5048031;28;1536;-59
2020/12/12 01:14:26;;;;;;;;;;;;;;;17.01;62.13;100014.94;5050259;28;1512;-55
2020/12/12 01:16:52;;;;;;;;;;;;;;;17.02;62.28;99997.09;5038057;28;1651;-55
2020/12/12 01:19:17;;;;;;;;;;;;;;;16.97;62.03;100002.84;5046734;28;1571;-56
2020/12/12 01:21:43;;;;;;;;;;;;;;;16.94;62.95;99984.44;5034842;28;1516;-56
2020/12/12 01:24:08;;;;;;;;;;;;;;;16.95;63.15;100002.16;5036837;28;1516;-56
2020/12/12 01:26:33;;;;;;;;;;;;;;;16.92;63.42;100009.59;5050407;28;1931;-59
2020/12/12 01:28:59;;;;;;;;;;;;;;;16.86;62.73;99995.81;5048509;28;1565;-58
2020/12/12 01:31:25;;;;;;;;;;;;;;;16.84;62.91;99994.28;5042678;28;1524;-59
2020/12/12 01:33:50;;;;;;;;;;;;;;;16.85;63.58;99993.28;5041256;28;1520;-58
2020/12/12 01:36:15;;;;;;;;;;;;;;;16.82;63.70;99991.75;5049908;28;1640;-55
2020/12/12 01:38:41;;;;;;;;;;;;;;;16.77;63.32;99969.06;5036975;28;1747;-59
2020/12/12 01:41:06;;;;;;;;;;;;;;;16.79;63.08;99985.78;5049667;28;1568;-55
2020/12/12 01:43:32;;;;;;;;;;;;;;;16.81;63.59;99989.16;5038425;28;1616;-56
2020/12/12 01:45:57;;;;;;;;;;;;;;;16.81;63.32;100000.75;5050486;28;1929;-59
2020/12/12 01:48:22;;;;;;;;;;;;;;;16.79;64.26;99981.31;5040769;28;1461;-59
2020/12/12 01:50:49;;;;;;;;;;;;;;;16.83;64.31;99987.22;5054130;28;1461;-58
2020/12/12 01:53:14;;;;;;;;;;;;;;;16.84;63.79;99980.91;5038800;28;1567;-59
2020/12/12 01:55:45;;;;;;;;;;;;;;;16.82;64.35;99977.56;5048525;28;1512;-59
2020/12/12 01:58:10;;;;;;;;;;;;;;;16.79;63.22;99965.31;5042105;28;1571;-55
2020/12/12 02:00:36;;;;;;;;;;;;;;;16.79;63.88;99961.75;5052914;28;1643;-59
2020/12/12 02:03:02;;;;;;;;;;;;;;;16.77;64.42;99961.06;5042838;28;1592;-59
2020/12/12 02:05:43;;;;;;;;;;;;;;;16.76;64.44;99959.41;5047222;28;1906;-55
2020/12/12 02:08:09;;;;;;;;;;;;;;;16.74;64.81;99961.34;5051649;28;1620;-58
2020/12/12 02:10:35;;;;;;;;;;;;;;;16.76;64.23;99960.22;5039432;28;1539;-55
2020/12/12 02:13:02;;;;;;;;;;;;;;;16.71;65.35;99941.09;5050934;28;1456;-58
2020/12/12 02:15:27;;;;;;;;;;;;;;;16.74;65.01;99940.00;5046068;28;1548;-56
2020/12/12 02:17:52;;;;;;;;;;;;;;;16.73;65.42;99939.13;5044351;28;1465;-55
2020/12/12 02:20:17;;;;;;;;;;;;;;;16.70;64.69;99940.28;5052929;28;1505;-59
2020/12/12 02:22:44;;;;;;;;;;;;;;;16.70;64.39;99940.28;5040324;28;1437;-55
2020/12/12 02:25:10;;;;;;;;;;;;;;;16.68;65.54;99931.56;5050262;28;2044;-55
2020/12/12 02:27:35;;;;;;;;;;;;;;;16.68;65.20;99928.06;5046599;28;1508;-55
2020/12/12 02:30:00;;;;;;;;;;;;;;;16.68;65.61;99923.56;5046082;28;1461;-56
2020/12/12 02:32:26;;;;;;;;;;;;;;;16.67;64.80;99923.69;5035248;28;1613;-58
2020/12/12 02:34:51;;;;;;;;;;;;;;;16.68;65.24;99944.91;5040668;28;1504;-55
2020/12/12 02:37:16;;;;;;;;;;;;;;;16.68;65.79;99931.56;5048632;28;1439;-58
2020/12/12 02:39:42;;;;;;;;;;;;;;;16.67;64.75;99929.03;5047299;28;1505;-55
2020/12/12 02:42:07;;;;;;;;;;;;;;;16.65;65.30;99931.84;5041258;28;1454;-55
2020/12/12 02:44:32;;;;;;;;;;;;;;;16.64;64.88;99940.00;5052804;28;1890;-59
2020/12/12 02:46:58;;;;;;;;;;;;;;;16.63;66.06;99928.50;5041466;28;1532;-59
2020/12/12 02:49:23;;;;;;;;;;;;;;;16.59;66.10;99934.22;5047646;28;1507;-56
2020/12/12 02:51:49;;;;;;;;;;;;;;;16.59;66.29;99934.22;5048160;28;1532;-59
2020/12/12 02:54:14;;;;;;;;;;;;;;;16.56;65.22;99932.69;5040747;28;1576;-59
2020/12/12 02:56:40;;;;;;;;;;;;;;;16.59;66.36;99921.75;5052256;28;1567;-56
2020/12/12 02:59:05;;;;;;;;;;;;;;;16.58;65.83;99936.06;5042490;28;1516;-56
2020/12/12 03:01:30;;;;;;;;;;;;;;;16.59;65.31;99929.75;5046348;28;1370;-55
2020/12/12 03:03:56;;;;;;;;;;;;;;;16.61;66.03;99946.47;5048998;28;1710;-56
2020/12/12 03:06:21;;;;;;;;;;;;;;;16.62;66.11;99932.13;5038840;28;1967;-58
2020/12/12 03:08:46;;;;;;;;;;;;;;;16.59;65.55;99921.75;5051781;28;1388;-58
2020/12/12 03:11:12;;;;;;;;;;;;;;;16.59;65.59;99937.75;5043135;28;1488;-58
2020/12/12 03:13:37;;;;;;;;;;;;;;;16.61;66.17;99933.13;5045087;28;1501;-55
2020/12/12 03:16:02;;;;;;;;;;;;;;;16.59;66.32;99934.22;5049400;28;1592;-55
2020/12/12 03:18:27;;;;;;;;;;;;;;;16.56;65.93;99922.00;5038664;28;1552;-58
2020/12/12 03:20:53;;;;;;;;;;;;;;;16.54;65.35;99923.16;5051678;28;1513;-55
2020/12/12 03:23:18;;;;;;;;;;;;;;;16.56;66.13;99922.00;5043505;28;1469;-56
2020/12/12 03:25:44;;;;;;;;;;;;;;;16.52;66.22;99914.44;5043846;28;1890;-58
2020/12/12 03:28:09;;;;;;;;;;;;;;;16.52;66.47;99915.28;5050808;28;1571;-59
2020/12/12 03:30:35;;;;;;;;;;;;;;;16.53;66.58;99908.94;5038765;28;1500;-55
2020/12/12 03:33:01;;;;;;;;;;;;;;;16.54;66.37;99918.63;5055346;28;1612;-58
2020/12/12 03:35:28;;;;;;;;;;;;;;;16.50;66.61;99902.06;5046628;28;1580;-55
2020/12/12 03:37:54;;;;;;;;;;;;;;;16.49;65.41;99907.53;5047623;28;1576;-58
2020/12/12 03:40:22;;;;;;;;;;;;;;;16.47;66.39;99902.34;5039183;28;1568;-59
2020/12/12 03:42:48;;;;;;;;;;;;;;;16.48;66.77;99909.38;5035892;28;1553;-59
2020/12/12 03:45:13;;;;;;;;;;;;;;;16.46;66.72;99900.66;5035511;28;1890;-58
2020/12/12 03:47:38;;;;;;;;;;;;;;;16.44;66.60;99897.28;5046087;28;1457;-55
2020/12/12 03:50:04;;;;;;;;;;;;;;;16.44;65.92;99885.78;5052938;28;1461;-55
2020/12/12 03:52:29;;;;;;;;;;;;;;;16.47;65.89;99901.50;5054311;28;1655;-58
2020/12/12 03:54:54;;;;;;;;;;;;;;;16.45;67.11;99892.78;5046459;28;1500;-58
2020/12/12 03:57:20;;;;;;;;;;;;;;;16.42;67.67;99890.41;5040623;28;1651;-59
2020/12/12 03:59:45;;;;;;;;;;;;;;;16.42;67.62;99895.75;5046671;28;1641;-55
2020/12/12 04:02:10;;;;;;;;;;;;;;;16.44;67.05;99886.63;5048894;28;1431;-59
2020/12/12 04:04:36;;;;;;;;;;;;;;;16.46;67.40;99897.16;5052886;28;1917;-57
2020/12/12 04:07:01;;;;;;;;;;;;;;;16.41;67.83;99891.38;5054864;28;789;-59
2020/12/12 04:09:26;;;;;;;;;;;;;;;16.46;67.60;99905.16;5055119;28;838;-59
2020/12/12 04:11:51;;;;;;;;;;;;;;;16.51;66.72;99886.88;5055134;28;793;-57
2020/12/12 04:14:17;;;;;;;;;;;;;;;16.49;66.99;99879.03;4692325;28;10000687;-56
2020/12/12 04:16:42;;;;;;;;;;;;;;;16.48;68.00;99879.16;5048956;28;1660;-56
2020/12/12 04:19:07;;;;;;;;;;;;;;;16.47;67.46;99877.47;5046310;28;1491;-56
2020/12/12 04:21:33;;;;;;;;;;;;;;;16.48;67.66;99873.84;5050614;28;958;-56
2020/12/12 04:23:58;;;;;;;;;;;;;;;16.51;66.41;99884.22;5056909;28;1460;-56
2020/12/12 04:26:24;;;;;;;;;;;;;;;16.50;67.39;99879.88;5052183;28;1914;-56
2020/12/12 04:28:50;;;;;;;;;;;;;;;16.47;67.12;99883.69;5055316;28;1514;-56
2020/12/12 04:31:15;;;;;;;;;;;;;;;16.43;66.95;99868.06;5048913;28;1164;-56
2020/12/12 04:33:40;;;;;;;;;;;;;;;16.41;68.62;99886.03;5050786;28;1496;-59
2020/12/12 04:36:05;;;;;;;;;;;;;;;16.43;68.25;99873.41;5046708;28;1531;-59
2020/12/12 04:38:34;;;;;;;;;;;;;;;16.41;69.49;99870.03;5046077;28;1436;-59
2020/12/12 04:41:00;;;;;;;;;;;;;;;16.46;68.75;99873.97;5054631;28;1156;-59
2020/12/12 04:43:25;;;;;;;;;;;;;;;16.42;69.23;99861.91;5051144;28;1515;-60
2020/12/12 04:45:51;;;;;;;;;;;;;;;16.43;70.94;99870.72;4347616;28;10000560;-59
2020/12/12 04:48:16;;;;;;;;;;;;;;;16.43;70.71;99868.06;5060844;28;999;-59
2020/12/12 04:50:42;;;;;;;;;;;;;;;16.40;70.31;99863.03;5061141;28;1195;-57
2020/12/12 04:53:12;;;;;;;;;;;;;;;16.39;69.93;99864.00;5061725;28;1258;-58
2020/12/12 04:55:46;;;;;;;;;;;;;;;16.40;69.00;99879.03;5062038;28;1310;-59
2020/12/12 04:58:15;;;;;;;;;;;;;;;16.35;69.54;99876.75;5054210;28;919;-57
2020/12/12 05:00:44;;;;;;;;;;;;;;;16.35;69.71;99875.94;5053506;28;1176;-57
2020/12/12 05:03:14;;;;;;;;;;;;;;;16.35;70.33;99875.94;5059316;28;1365;-56
2020/12/12 05:05:40;;;;;;;;;;;;;;;16.34;70.20;99874.25;5062651;28;1917;-57
2020/12/12 05:08:05;;;;;;;;;;;;;;;16.38;70.14;99865.00;5061523;28;1394;-57
2020/12/12 05:10:44;;;;;;;;;;;;;;;16.39;70.03;99864.00;5043048;28;1441;-56
2020/12/12 05:13:23;;;;;;;;;;;;;;;16.35;69.92;99844.75;5053474;28;1425;-56
2020/12/12 05:15:50;;;;;;;;;;;;;;;16.36;69.56;99853.63;5050372;28;1453;-56
2020/12/12 05:18:15;;;;;;;;;;;;;;;16.33;69.71;99853.88;5050560;28;1438;-56
2020/12/12 05:20:41;;;;;;;;;;;;;;;16.32;68.84;99860.22;5048319;28;1354;-56
2020/12/12 05:23:10;;;;;;;;;;;;;;;16.30;69.26;99847.00;5043567;28;1393;-59
2020/12/12 05:25:36;;;;;;;;;;;;;;;16.33;68.92;99851.22;5054898;28;1951;-56
2020/12/12 05:28:01;;;;;;;;;;;;;;;16.30;68.80;99850.50;5057335;28;1394;-57
2020/12/12 05:30:27;;;;;;;;;;;;;;;16.33;69.32;99851.22;5048541;28;1437;-56
2020/12/12 05:32:52;;;;;;;;;;;;;;;16.32;69.29;99854.88;5047879;28;1433;-57
2020/12/12 05:35:17;;;;;;;;;;;;;;;16.36;69.20;99857.13;5041535;28;1354;-58
2020/12/12 05:37:43;;;;;;;;;;;;;;;16.33;68.78;99845.88;5053285;28;1787;-57
2020/12/12 05:40:09;;;;;;;;;;;;;;;16.30;69.30;99831.84;5037782;28;1422;-58
2020/12/12 05:42:35;;;;;;;;;;;;;;;16.33;69.19;99852.06;5038608;28;1375;-56
2020/12/12 05:45:03;;;;;;;;;;;;;;;16.31;68.82;99843.34;5051093;28;1949;-59
2020/12/12 05:47:29;;;;;;;;;;;;;;;16.30;68.32;99847.00;5039324;28;1386;-59
2020/12/12 05:49:54;;;;;;;;;;;;;;;16.27;68.63;99844.59;5051688;28;1444;-59
2020/12/12 05:52:20;;;;;;;;;;;;;;;16.29;68.21;99840.84;5043276;28;1362;-58
2020/12/12 05:54:47;;;;;;;;;;;;;;;16.25;68.90;99828.78;5045619;28;1331;-58
2020/12/12 05:57:12;;;;;;;;;;;;;;;16.26;68.12;99824.28;5051907;28;1370;-57
2020/12/12 05:59:38;;;;;;;;;;;;;;;16.28;69.00;99825.81;5039661;28;1508;-56
2020/12/12 06:02:05;;;;;;;;;;;;;;;16.25;68.81;99828.78;5051659;28;1443;-57
2020/12/12 06:04:34;;;;;;;;;;;;;;;16.26;69.26;99830.44;5046465;28;1913;-56
2020/12/12 06:07:04;;;;;;;;;;;;;;;16.25;68.35;99823.44;5043348;28;1418;-57
2020/12/12 06:09:38;;;;;;;;;;;;;;;16.24;67.92;99824.41;5037459;28;1311;-56
2020/12/12 06:12:04;;;;;;;;;;;;;;;16.22;69.11;99815.69;5050618;28;1560;-59
2020/12/12 06:14:34;;;;;;;;;;;;;;;16.22;67.91;99820.19;5046550;28;1425;-57
2020/12/12 06:17:05;;;;;;;;;;;;;;;16.25;68.64;99809.22;5049692;28;1367;-59
2020/12/12 06:19:32;;;;;;;;;;;;;;;16.23;69.03;99836.03;5039220;28;1330;-58
2020/12/12 06:21:57;;;;;;;;;;;;;;;16.22;68.61;99826.38;5051884;28;1331;-56
2020/12/12 06:24:23;;;;;;;;;;;;;;;16.25;68.57;99834.09;5036843;28;1953;-59
2020/12/12 06:27:01;;;;;;;;;;;;;;;16.20;69.24;99831.00;5047260;28;1327;-59
2020/12/12 06:29:28;;;;;;;;;;;;;;;16.21;67.99;99830.00;5053756;28;1390;-59
2020/12/12 06:31:54;;;;;;;;;;;;;;;16.13;68.86;99813.88;5040600;28;1310;-57
2020/12/12 06:34:38;;;;;;;;;;;;;;;16.15;68.31;99825.22;5047768;28;1291;-59
2020/12/12 06:37:03;;;;;;;;;;;;;;;16.18;68.29;99810.78;5042282;28;1366;-56
2020/12/12 06:39:29;;;;;;;;;;;;;;;16.18;68.20;99816.13;5052340;28;1374;-59
2020/12/12 06:41:55;;;;;;;;;;;;;;;16.17;68.45;99820.59;5040686;28;1433;-58
2020/12/12 06:44:37;;;;;;;;;;;;;;;16.17;68.53;99812.59;5047678;28;1279;-57
2020/12/12 06:47:03;;;;;;;;;;;;;;;16.15;68.22;99806.56;5049604;28;1426;-59
2020/12/12 06:49:28;;;;;;;;;;;;;;;16.17;68.43;99815.25;5038466;28;1370;-57
2020/12/12 06:51:54;;;;;;;;;;;;;;;16.19;67.79;99815.13;5052747;28;1453;-57
2020/12/12 06:54:20;;;;;;;;;;;;;;;16.17;68.61;99804.59;5044417;28;1443;-59
2020/12/12 06:56:46;;;;;;;;;;;;;;;16.17;67.78;99806.44;5044291;28;1536;-58
2020/12/12 06:59:31;;;;;;;;;;;;;;;16.19;67.65;99802.63;5051059;28;1363;-56
2020/12/12 07:02:00;;;;;;;;;;;;;;;16.18;68.44;99808.13;5036035;28;1419;-56
2020/12/12 07:04:26;;;;;;;;;;;;;;;16.16;68.51;99813.59;5043153;28;1959;-59
2020/12/12 07:07:02;;;;;;;;;;;;;;;16.15;67.88;99805.72;5043694;28;1390;-58
2020/12/12 07:09:28;;;;;;;;;;;;;;;16.13;68.79;99797.84;5051876;28;1367;-58
2020/12/12 07:11:57;;;;;;;;;;;;;;;16.14;68.03;99799.56;5039990;28;1413;-57
2020/12/12 07:14:23;;;;;;;;;;;;;;;16.15;68.49;99795.06;5046836;28;1338;-59
2020/12/12 07:16:56;;;;;;;;;;;;;;;16.18;68.46;99800.97;5047588;28;1433;-59
2020/12/12 07:19:47;;;;;;;;;;;;;;;16.11;67.78;99791.81;5038944;28;1260;-57
2020/12/12 07:22:13;;;;;;;;;;;;;;;16.12;68.30;99790.84;5051890;28;1402;-59
2020/12/12 07:24:38;;;;;;;;;;;;;;;16.14;68.06;99798.72;5053184;28;1890;-59
2020/12/12 07:27:04;;;;;;;;;;;;;;;16.11;68.57;99783.81;5041213;28;1461;-59
2020/12/12 07:29:30;;;;;;;;;;;;;;;16.12;68.56;99787.34;5051703;28;1345;-59
2020/12/12 07:31:55;;;;;;;;;;;;;;;16.09;68.72;99777.78;5041166;28;1366;-59
2020/12/12 07:34:22;;;;;;;;;;;;;;;16.11;68.64;99773.16;5046952;28;1378;-59
2020/12/12 07:36:56;;;;;;;;;;;;;;;16.16;68.07;99778.91;5040535;28;1374;-58
2020/12/12 07:39:25;;;;;;;;;;;;;;;16.10;67.94;99783.00;5047412;28;1363;-56
2020/12/12 07:41:54;;;;;;;;;;;;;;;16.06;68.98;99760.25;5049409;28;1351;-59
2020/12/12 07:44:20;;;;;;;;;;;;;;;16.18;68.68;99781.47;5037305;28;1413;-60
2020/12/12 07:46:55;;;;;;;;;;;;;;;16.15;70.68;99755.88;5024226;28;1943;-57
2020/12/12 07:49:21;;;;;;;;;;;;;;;16.21;70.05;99776.66;5040775;28;1394;-58
2020/12/12 07:51:59;;;;;;;;;;;;;;;16.22;70.59;99770.34;4609956;28;10000845;-59
2020/12/12 07:54:30;;;;;;;;;;;;;;;16.27;69.58;99773.44;5018490;28;1647;-59
2020/12/12 07:56:55;;;;;;;;;;;;;;;16.02;69.72;99729.53;5022952;28;1507;-59
2020/12/12 07:59:21;;;;;;;;;;;;;;;16.17;69.74;99772.59;5023386;28;1576;-60
2020/12/12 08:01:49;;;;;;;;;;;;;;;16.17;69.54;99761.91;5026274;28;1352;-59
2020/12/12 08:04:21;;;;;;;;;;;;;;;16.17;69.24;99774.41;5021743;28;1525;-60
2020/12/12 08:06:47;;;;;;;;;;;;;;;16.15;69.91;99773.72;5026886;28;1977;-58
2020/12/12 08:09:16;;;;;;;;;;;;;;;16.23;68.58;99755.19;5021968;28;1493;-59
2020/12/12 08:11:42;;;;;;;;;;;;;;;16.18;69.07;99750.28;5021515;28;1184;-59
2020/12/12 08:14:07;;;;;;;;;;;;;;;16.16;68.99;99743.41;5021444;28;1499;-59
2020/12/12 08:16:44;;;;;;;;;;;;;;;16.28;68.48;99753.78;5027566;28;1330;-59
2020/12/12 08:19:09;;;;;;;;;;;;;;;16.47;68.89;99747.56;5024080;28;1696;-59
2020/12/12 08:21:36;;;;;;;;;;;;;;;16.65;67.24;99747.66;5027545;28;1437;-59
2020/12/12 08:24:03;;;;;;;;;;;;;;;16.82;67.97;99746.09;5023118;28;1274;-59
2020/12/12 08:26:30;;;;;;;;;;;;;;;16.95;67.15;99745.78;5046542;28;1910;-59
2020/12/12 08:28:59;;;;;;;;;;;;;;;17.05;67.08;99746.56;5048648;28;1405;-57
2020/12/12 08:31:25;;;;;;;;;;;;;;;17.24;66.29;99750.97;5046674;28;1511;-56
2020/12/12 08:33:54;;;;;;;;;;;;;;;17.35;66.30;99733.91;5048322;28;1539;-59
2020/12/12 08:36:20;;;;;;;;;;;;;;;17.46;65.71;99733.66;5060934;28;1139;-59
2020/12/12 08:38:53;;;;;;;;;;;;;;;17.60;66.36;99728.81;5044976;28;1495;-59
2020/12/12 08:41:19;;;;;;;;;;;;;;;17.73;66.32;99733.78;5045945;28;1674;-59
2020/12/12 08:43:45;;;;;;;;;;;;;;;17.86;65.01;99719.03;5049007;28;1385;-57
2020/12/12 08:46:14;;;;;;;;;;;;;;;18.05;65.12;99717.22;5053738;28;1960;-57
2020/12/12 08:48:40;;;;;;;;;;;;;;;18.16;64.08;99708.09;5047757;28;1428;-59
2020/12/12 08:51:06;;;;;;;;;;;;;;;18.26;64.50;99706.16;5052741;28;1029;-59
2020/12/12 08:53:33;;;;;;;;;;;;;;;18.18;64.30;99658.78;5051434;28;2197;-58
2020/12/12 08:56:04;;;;;;;;;;;;;;;18.48;63.79;99694.94;5052182;28;1554;-59
2020/12/12 08:58:49;;;;;;;;;;;;;;;18.61;63.94;99686.47;5051620;28;1487;-56
2020/12/12 09:01:20;;;;;;;;;;;;;;;18.73;64.24;99678.16;5051904;28;1475;-59
2020/12/12 09:03:53;;;;;;;;;;;;;;;18.76;64.58;99677.84;5059177;28;1470;-57
2020/12/12 09:06:18;;;;;;;;;;;;;;;18.82;65.04;99679.91;5058482;28;1990;-57
2020/12/12 09:08:44;;;;;;;;;;;;;;;18.81;65.23;99675.56;5051255;28;1553;-57
2020/12/12 09:11:13;;;;;;;;;;;;;;;18.86;65.50;99676.75;5051853;28;1511;-56
2020/12/12 09:13:38;;;;;;;;;;;;;;;18.88;64.08;99655.19;5051025;28;1434;-56
2020/12/12 09:16:07;;;;;;;;;;;;;;;18.96;62.91;99657.03;5051270;28;1500;-57
2020/12/12 09:18:41;;;;;;;;;;;;;;;18.91;63.11;99646.81;5063418;28;1120;-55
2020/12/12 09:21:06;;;;;;;;;;;;;;;18.86;62.15;99646.44;5064939;28;1436;-57
2020/12/12 09:23:32;;;;;;;;;;;;;;;18.91;61.28;99644.13;5056909;28;1484;-59
2020/12/12 09:25:57;;;;;;;;;;;;;;;18.86;60.56;99638.41;5055294;28;1977;-57
2020/12/12 09:28:23;;;;;;;;;;;;;;;18.79;59.50;99629.31;5050762;28;1522;-55
2020/12/12 09:30:48;;;;;;;;;;;;;;;18.77;58.48;99640.19;5054028;28;1001;-56
2020/12/12 09:33:14;;;;;;;;;;;;;;;18.68;59.38;99633.97;5052909;28;1448;-60
2020/12/12 09:35:39;;;;;;;;;;;;;;;18.77;59.47;99636.69;5050987;28;1371;-56
2020/12/12 09:38:04;;;;;;;;;;;;;;;17.94;59.16;99626.50;5055698;28;1620;-57
2020/12/12 09:40:30;;;;;;;;;;;;;;;17.50;61.15;99632.66;5056700;28;784;-62
2020/12/12 09:42:55;;;;;;;;;;;;;;;18.21;60.27;99621.00;5063408;28;1196;-69
2020/12/12 09:45:20;;;;;;;;;;;;;;;18.58;59.47;99619.00;5057717;28;1956;-59
2020/12/12 09:47:45;;;;;;;;;;;;;;;18.63;59.39;99625.56;5058625;28;801;-59
2020/12/12 09:50:10;;;;;;;;;;;;;;;18.68;59.66;99611.69;5057585;28;809;-59
2020/12/12 09:52:36;;;;;;;;;;;;;;;18.61;59.90;99632.09;5057697;28;817;-59
2020/12/12 09:55:01;;;;;;;;;;;;;;;18.52;60.70;99625.00;5057664;28;848;-62
2020/12/12 09:57:26;;;;;;;;;;;;;;;18.44;61.34;99617.78;5057641;28;904;-62
2020/12/12 09:59:52;;;;;;;;;;;;;;;18.39;61.30;99623.63;5057114;28;859;-58
2020/12/12 10:02:17;;;;;;;;;;;;;;;18.35;61.33;99608.03;5055947;28;1294;-60
2020/12/12 10:04:42;;;;;;;;;;;;;;;18.33;62.04;99610.03;5057045;28;1983;-61
2020/12/12 10:07:07;;;;;;;;;;;;;;;18.33;61.87;99605.53;5057331;28;919;-63
2020/12/12 10:09:33;;;;;;;;;;;;;;;18.27;62.57;99612.34;5057355;28;815;-66
2020/12/12 10:11:58;;;;;;;;;;;;;;;18.27;62.48;99598.97;5056963;28;872;-58
2020/12/12 10:14:23;;;;;;;;;;;;;;;18.27;63.22;99598.13;5057155;28;722;-64
2020/12/12 10:16:48;;;;;;;;;;;;;;;18.28;62.43;99592.63;5056854;28;1246;-60
2020/12/12 10:19:13;;;;;;;;;;;;;;;18.23;62.83;99594.94;5067568;28;1286;-60
2020/12/12 10:21:39;;;;;;;;;;;;;;;18.21;62.93;99578.19;5068536;28;1302;-59
2020/12/12 10:24:04;;;;;;;;;;;;;;;18.20;62.62;99581.84;5073218;28;1305;-58
2020/12/12 10:26:29;;;;;;;;;;;;;;;18.16;63.72;99574.31;5065587;28;1878;-59
2020/12/12 10:28:54;;;;;;;;;;;;;;;18.15;63.20;99588.72;5056177;28;1393;-59
2020/12/12 10:31:20;;;;;;;;;;;;;;;18.10;63.66;99570.44;4998537;28;11168;-59
2020/12/12 10:33:45;;;;;;;;;;;;;;;18.22;63.55;99569.19;5041638;28;1207;-59
2020/12/12 10:36:10;;;;;;;;;;;;;;;18.31;63.14;99578.09;5026377;28;1311;-59
2020/12/12 10:38:36;;;;;;;;;;;;;;;18.38;63.18;99564.88;5027165;28;1378;-58
2020/12/12 10:41:10;;;;;;;;;;;;;;;18.43;63.81;99565.25;5025530;28;1294;-60
2020/12/12 10:43:35;;;;;;;;;;;;;;;18.39;63.92;99550.53;5022175;28;1358;-61
2020/12/12 10:46:02;;;;;;;;;;;;;;;18.46;63.92;99543.50;5027011;28;1910;-59
2020/12/12 10:48:27;;;;;;;;;;;;;;;18.48;64.00;99530.78;4959093;28;10942;-67
2020/12/12 10:50:52;;;;;;;;;;;;;;;18.53;63.74;99533.00;5025621;28;1393;-66
2020/12/12 10:53:18;;;;;;;;;;;;;;;18.53;63.88;99524.97;5022089;28;1490;-59
2020/12/12 10:55:43;;;;;;;;;;;;;;;18.57;64.24;99535.19;5006782;28;1659;-65
2020/12/12 10:58:08;;;;;;;;;;;;;;;18.58;63.91;99530.66;5006990;28;1482;-65
2020/12/12 11:00:40;;;;;;;;;;;;;;;18.67;64.41;99535.88;5001315;28;1585;-68
2020/12/12 11:03:06;;;;;;;;;;;;;;;18.76;64.15;99527.84;4985781;28;1562;-57
2020/12/12 11:05:32;;;;;;;;;;;;;;;18.78;64.21;99523.19;5003657;28;1985;-64
2020/12/12 11:07:57;;;;;;;;;;;;;;;18.74;64.30;99530.72;5000381;28;1204;-57
2020/12/12 11:10:22;;;;;;;;;;;;;;;18.73;64.27;99528.22;4971769;28;11041;-59
2020/12/12 11:12:47;;;;;;;;;;;;;;;18.69;63.93;99533.03;5013022;28;1556;-57
2020/12/12 11:15:13;;;;;;;;;;;;;;;18.75;64.41;99520.84;5013336;28;1576;-70
2020/12/12 11:17:39;;;;;;;;;;;;;;;18.64;64.22;99519.28;5015836;28;1472;-64
2020/12/12 11:20:04;;;;;;;;;;;;;;;18.52;64.68;99525.97;5012068;28;1584;-60
2020/12/12 11:22:29;;;;;;;;;;;;;;;18.47;64.82;99521.09;5005184;28;1260;-58
2020/12/12 11:24:54;;;;;;;;;;;;;;;18.42;64.66;99513.56;5009014;28;1898;-59
2020/12/12 11:27:19;;;;;;;;;;;;;;;18.37;64.67;99499.81;5000765;28;1492;-64
2020/12/12 11:29:46;;;;;;;;;;;;;;;18.38;64.61;99508.69;5008428;28;1204;-61
2020/12/12 11:32:12;;;;;;;;;;;;;;;18.41;64.99;99503.84;4992613;28;1992;-59
2020/12/12 11:34:41;;;;;;;;;;;;;;;18.38;65.15;99498.84;4983390;28;1545;-59
2020/12/12 11:47:24;;;;;;;;;;;;;;;18.23;65.08;99482.53;5001589;28;1518;-60
2020/12/12 11:49:49;;;;;;;;;;;;;;;18.25;65.67;99487.75;5006514;28;1512;-58
2020/12/12 11:52:15;;;;;;;;;;;;;;;18.17;65.28;99477.84;5004780;28;1471;-63
2020/12/12 11:54:40;;;;;;;;;;;;;;;18.25;65.23;99483.22;5006429;28;1509;-62
2020/12/12 11:57:08;;;;;;;;;;;;;;;18.23;65.29;99481.72;5006049;28;1538;-61
2020/12/12 11:59:33;;;;;;;;;;;;;;;18.21;65.67;99471.16;5003777;28;1434;-58
2020/12/12 12:01:58;;;;;;;;;;;;;;;18.21;65.89;99476.50;5005323;28;1580;-59
2020/12/12 12:04:23;;;;;;;;;;;;;;;18.25;65.35;99480.53;5004617;28;1240;-61
2020/12/12 12:06:49;;;;;;;;;;;;;;;18.32;65.31;99488.75;5006423;28;1910;-62
2020/12/12 12:09:31;;;;;;;;;;;;;;;18.24;66.21;99460.16;5005817;28;1545;-58
2020/12/12 12:11:56;;;;;;;;;;;;;;;18.18;66.73;99463.44;5005165;28;1865;-62
2020/12/12 12:14:22;;;;;;;;;;;;;;;18.16;66.56;99461.94;4994136;28;1876;-58
2020/12/12 12:16:47;;;;;;;;;;;;;;;18.14;66.74;99478.16;5003855;28;1656;-62
2020/12/12 12:19:13;;;;;;;;;;;;;;;18.07;66.99;99469.13;5004127;28;1521;-63
2020/12/12 12:21:39;;;;;;;;;;;;;;;18.04;66.79;99461.41;5006434;28;1503;-58
2020/12/12 12:24:06;;;;;;;;;;;;;;;18.06;67.82;99454.91;5003216;28;1557;-59
2020/12/12 12:26:35;;;;;;;;;;;;;;;18.01;67.43;99449.19;5006052;28;1947;-58
2020/12/12 12:29:01;;;;;;;;;;;;;;;18.03;67.12;99441.00;5002433;28;1615;-57
2020/12/12 12:31:27;;;;;;;;;;;;;;;18.04;66.87;99438.16;5006803;28;1513;-57
2020/12/12 12:33:54;;;;;;;;;;;;;;;18.06;67.94;99438.00;5001901;28;1201;-62
2020/12/12 12:36:22;;;;;;;;;;;;;;;18.15;67.27;99445.06;5006289;28;1688;-62
2020/12/12 12:38:47;;;;;;;;;;;;;;;18.15;67.54;99434.34;5003715;28;1664;-57
2020/12/12 12:41:12;;;;;;;;;;;;;;;18.18;66.82;99427.84;5007874;28;1509;-57
2020/12/12 12:43:39;;;;;;;;;;;;;;;18.18;66.71;99434.00;5005696;28;1260;-62
2020/12/12 12:46:04;;;;;;;;;;;;;;;18.18;66.61;99419.81;4999554;28;1894;-58
2020/12/12 12:48:29;;;;;;;;;;;;;;;18.19;67.09;99425.00;5002193;28;1554;-62
2020/12/12 12:50:54;;;;;;;;;;;;;;;18.22;67.44;99419.34;5009863;28;1509;-65
2020/12/12 12:53:20;;;;;;;;;;;;;;;18.20;66.42;99412.47;5014119;28;1270;-57
2020/12/12 12:55:45;;;;;;;;;;;;;;;18.17;67.10;99413.63;5013269;28;1454;-63
2020/12/12 12:58:11;;;;;;;;;;;;;;;18.30;66.21;99418.50;5014365;28;1467;-62
2020/12/12 13:00:37;;;;;;;;;;;;;;;18.39;66.02;99414.03;4997246;28;1503;-58
2020/12/12 13:03:03;;;;;;;;;;;;;;;18.41;66.75;99414.69;5014503;28;1514;-57